createdAt,value
2018-06-25T00:00:59.563Z,39.78
2018-06-25T00:03:36.676Z,40.08
2018-06-25T00:09:14.208Z,39.61
2018-06-25T00:11:55.323Z,39.75
2018-06-25T00:14:39.838Z,38.63
2018-06-25T00:17:26.097Z,38.67
2018-06-25T00:20:10.897Z,38.44
2018-06-25T00:22:51.565Z,38.38
2018-06-25T00:25:45.299Z,38.26
2018-06-25T00:32:52.734Z,38.84
2018-06-25T00:35:39.758Z,38.92
2018-06-25T00:38:15.427Z,38.49
2018-06-25T00:40:57.882Z,38.48
2018-06-25T00:43:51.010Z,38.29
2018-06-25T00:46:25.001Z,38.46
2018-06-25T00:48:59.030Z,38.77
2018-06-25T00:51:30.979Z,38.85
2018-06-25T00:54:03.019Z,39.59
2018-06-25T00:56:38.913Z,39.19
2018-06-25T00:59:25.263Z,39.77
2018-06-25T01:04:47.873Z,39.09
2018-06-25T01:07:22.229Z,39.92
2018-06-25T01:09:58.569Z,40.01
2018-06-25T01:12:35.826Z,40.36
2018-06-25T01:15:17.837Z,39.78
2018-06-25T01:17:50.549Z,40.59
2018-06-25T01:20:25.772Z,40.15
2018-06-25T01:23:03.071Z,39.95
2018-06-25T01:25:35.717Z,40.99
2018-06-25T01:30:55.985Z,41.25
2018-06-25T01:36:30.756Z,41.38
2018-06-25T01:39:04.292Z,41.75
2018-06-25T01:41:45.804Z,41.66
2018-06-25T01:44:22.448Z,41.43
2018-06-25T01:46:56.735Z,42.14
2018-06-25T01:49:31.287Z,41.71
2018-06-25T01:52:05.588Z,42.35
2018-06-25T01:54:42.723Z,42.31
2018-06-25T01:57:17.309Z,43.38
2018-06-25T01:59:53.785Z,42.60
2018-06-25T02:02:31.482Z,42.72
2018-06-25T02:05:06.316Z,43.28
2018-06-25T02:07:38.878Z,42.99
2018-06-25T02:10:11.807Z,43.32
2018-06-25T02:12:45.483Z,43.46
2018-06-25T02:15:19.274Z,42.58
2018-06-25T02:17:53.191Z,42.54
2018-06-25T02:20:27.980Z,42.52
2018-06-25T02:26:54.722Z,43.24
2018-06-25T02:29:29.414Z,43.01
2018-06-25T02:32:01.820Z,42.52
2018-06-25T02:34:35.539Z,42.62
2018-06-25T02:37:13.308Z,43.52
2018-06-25T02:39:48.299Z,43.45
2018-06-25T02:42:21.993Z,43.33
2018-06-25T02:44:56.649Z,43.78
2018-06-25T02:47:33.276Z,43.19
2018-06-25T02:50:12.780Z,43.37
2018-06-25T02:52:52.318Z,42.89
2018-06-25T02:55:29.597Z,43.69
2018-06-25T02:58:05.875Z,43.87
2018-06-25T03:00:41.937Z,44.17
2018-06-25T03:03:15.799Z,44.17
2018-06-25T03:05:50.798Z,44.04
2018-06-25T03:08:23.791Z,44.12
2018-06-25T03:10:56.106Z,43.54
2018-06-25T03:13:29.652Z,43.67
2018-06-25T03:16:02.267Z,44.04
2018-06-25T03:18:35.194Z,43.88
2018-06-25T03:21:07.325Z,43.89
2018-06-25T03:23:40.015Z,44.48
2018-06-25T03:26:12.633Z,44.29
2018-06-25T03:28:44.077Z,43.73
2018-06-25T03:31:18.112Z,43.41
2018-06-25T03:33:51.604Z,43.90
2018-06-25T03:36:25.836Z,43.52
2018-06-25T03:39:01.888Z,44.40
2018-06-25T03:41:34.234Z,44.01
2018-06-25T03:44:09.456Z,44.37
2018-06-25T03:46:53.468Z,43.46
2018-06-25T03:49:31.927Z,43.03
2018-06-25T03:52:13.913Z,43.04
2018-06-25T03:54:55.333Z,43.45
2018-06-25T03:57:28.886Z,42.74
2018-06-25T04:00:05.492Z,43.19
2018-06-25T04:02:45.245Z,42.60
2018-06-25T04:05:20.215Z,43.05
2018-06-25T04:07:54.857Z,42.11
2018-06-25T04:10:26.710Z,42.12
2018-06-25T04:12:58.405Z,42.18
2018-06-25T04:15:30.109Z,43.00
2018-06-25T04:18:01.977Z,41.92
2018-06-25T04:20:34.454Z,42.13
2018-06-25T04:23:08.513Z,42.28
2018-06-25T04:25:41.109Z,42.31
2018-06-25T04:28:13.329Z,41.94
2018-06-25T04:30:48.463Z,42.20
2018-06-25T04:33:20.901Z,41.58
2018-06-25T04:35:53.277Z,42.06
2018-06-25T04:38:25.272Z,42.40
2018-06-25T04:40:58.135Z,41.73
2018-06-25T04:43:29.566Z,41.92
2018-06-25T04:46:02.888Z,41.91
2018-06-25T04:48:39.476Z,41.93
2018-06-25T04:51:10.896Z,42.25
2018-06-25T04:53:42.778Z,42.89
2018-06-25T04:56:17.771Z,42.73
2018-06-25T04:58:51.912Z,41.52
2018-06-25T05:01:23.297Z,41.67
2018-06-25T05:03:56.682Z,41.40
2018-06-25T05:06:29.971Z,40.95
2018-06-25T05:09:01.921Z,41.48
2018-06-25T05:11:32.996Z,41.17
2018-06-25T05:14:08.820Z,41.64
2018-06-25T05:16:41.515Z,41.67
2018-06-25T05:19:17.411Z,40.75
2018-06-25T05:21:51.425Z,41.20
2018-06-25T05:24:26.559Z,40.62
2018-06-25T05:27:00.161Z,39.93
2018-06-25T05:29:34.046Z,40.10
2018-06-25T05:32:08.463Z,39.39
2018-06-25T05:34:41.752Z,38.63
2018-06-25T05:37:15.025Z,39.08
2018-06-25T05:39:48.536Z,38.58
2018-06-25T05:42:24.031Z,38.20
2018-06-25T05:44:57.465Z,37.89
2018-06-25T05:47:31.964Z,37.74
2018-06-25T05:50:06.849Z,38.52
2018-06-25T05:52:41.797Z,38.72
2018-06-25T05:55:15.253Z,38.95
2018-06-25T05:57:49.397Z,39.10
2018-06-25T06:00:23.917Z,38.94
2018-06-25T06:02:59.520Z,38.75
2018-06-25T06:05:33.777Z,37.93
2018-06-25T06:08:09.284Z,38.02
2018-06-25T06:10:43.412Z,37.94
2018-06-25T06:13:16.935Z,36.92
2018-06-25T06:15:51.128Z,36.88
2018-06-25T06:18:25.432Z,36.15
2018-06-25T06:20:59.545Z,35.88
2018-06-25T06:23:34.675Z,35.31
2018-06-25T06:26:08.299Z,35.66
2018-06-25T06:28:44.969Z,35.15
2018-06-25T06:31:19.438Z,35.54
2018-06-25T06:33:54.384Z,35.87
2018-06-25T06:36:34.008Z,36.17
2018-06-25T06:39:27.271Z,35.35
2018-06-25T06:42:00.469Z,35.03
2018-06-25T06:44:33.630Z,34.24
2018-06-25T06:47:06.892Z,34.01
2018-06-25T06:49:40.181Z,33.66
2018-06-25T06:52:14.611Z,34.12
2018-06-25T06:54:50.402Z,34.20
2018-06-25T06:57:24.988Z,34.70
2018-06-25T06:59:58.485Z,35.55
2018-06-25T07:02:32.073Z,35.24
2018-06-25T07:05:08.335Z,34.66
2018-06-25T07:07:42.270Z,34.89
2018-06-25T07:10:39.645Z,34.46
2018-06-25T07:13:14.121Z,34.31
2018-06-25T07:15:49.337Z,34.79
2018-06-25T07:18:23.784Z,36.10
2018-06-25T07:20:57.528Z,35.43
2018-06-25T07:23:32.256Z,34.37
2018-06-25T07:26:06.145Z,35.44
2018-06-25T07:28:47.365Z,35.16
2018-06-25T07:31:26.546Z,35.99
2018-06-25T07:34:12.859Z,35.72
2018-06-25T07:36:50.257Z,35.37
2018-06-25T07:39:26.037Z,35.06
2018-06-25T07:41:59.873Z,35.14
2018-06-25T07:44:35.914Z,34.39
2018-06-25T07:47:12.145Z,34.80
2018-06-25T07:49:46.104Z,33.66
2018-06-25T07:52:24.963Z,34.28
2018-06-25T07:54:58.707Z,34.98
2018-06-25T07:57:33.732Z,34.76
2018-06-25T08:00:13.820Z,34.57
2018-06-25T08:02:47.447Z,34.07
2018-06-25T08:05:21.424Z,32.54
2018-06-25T08:07:55.748Z,33.36
2018-06-25T08:10:29.425Z,32.99
2018-06-25T08:13:06.710Z,32.96
2018-06-25T08:15:40.119Z,32.04
2018-06-25T08:18:13.975Z,31.78
2018-06-25T08:20:48.683Z,32.16
2018-06-25T08:23:23.706Z,31.48
2018-06-25T08:26:00.166Z,30.84
2018-06-25T08:28:36.751Z,31.38
2018-06-25T08:31:11.507Z,30.93
2018-06-25T08:33:44.864Z,29.28
2018-06-25T08:36:19.415Z,29.52
2018-06-25T08:38:53.675Z,30.26
2018-06-25T08:41:27.720Z,29.78
2018-06-25T08:44:01.075Z,29.62
2018-06-25T08:49:06.674Z,29.56
2018-06-25T08:51:39.858Z,29.58
2018-06-25T08:54:14.335Z,29.32
2018-06-25T08:56:47.675Z,29.00
2018-06-25T08:59:21.287Z,28.26
2018-06-25T09:01:55.329Z,27.99
2018-06-25T09:04:30.725Z,27.76
2018-06-25T09:07:11.434Z,26.58
2018-06-25T09:09:47.238Z,25.69
2018-06-25T09:12:22.412Z,24.25
2018-06-25T09:14:59.200Z,23.29
2018-06-25T09:17:33.183Z,24.13
2018-06-25T09:20:10.288Z,23.80
2018-06-25T09:22:43.613Z,24.10
2018-06-25T09:25:18.564Z,25.03
2018-06-25T09:27:53.888Z,25.13
2018-06-25T09:30:34.597Z,24.57
2018-06-25T09:33:10.589Z,24.74
2018-06-25T09:35:46.286Z,23.92
2018-06-25T09:38:25.322Z,23.31
2018-06-25T09:40:58.767Z,24.03
2018-06-25T09:43:41.732Z,23.73
2018-06-25T09:46:19.479Z,22.16
2018-06-25T09:48:57.511Z,21.71
2018-06-25T09:51:32.190Z,21.74
2018-06-25T09:54:06.448Z,22.55
2018-06-25T09:56:41.800Z,23.05
2018-06-25T09:59:17.247Z,23.18
2018-06-25T10:01:52.208Z,24.29
2018-06-25T10:04:25.753Z,23.83
2018-06-25T10:07:02.974Z,24.04
2018-06-25T10:09:39.685Z,23.43
2018-06-25T10:12:13.005Z,23.07
2018-06-25T10:14:46.455Z,23.04
2018-06-25T10:17:20.305Z,23.42
2018-06-25T10:19:58.616Z,23.64
2018-06-25T10:22:32.083Z,23.51
2018-06-25T10:25:08.820Z,22.96
2018-06-25T10:27:46.056Z,22.08
2018-06-25T10:30:24.636Z,22.43
2018-06-25T10:33:40.415Z,22.34
2018-06-25T10:36:18.202Z,22.50
2018-06-25T10:38:59.128Z,22.47
2018-06-25T10:41:42.621Z,21.90
2018-06-25T10:44:15.972Z,21.54
2018-06-25T10:46:54.059Z,21.49
2018-06-25T10:49:29.504Z,20.57
2018-06-25T10:52:05.471Z,22.19
2018-06-25T10:54:40.987Z,21.81
2018-06-25T10:57:16.386Z,22.60
2018-06-25T10:59:53.405Z,23.26
2018-06-25T11:02:27.172Z,22.63
2018-06-25T11:05:06.173Z,22.17
2018-06-25T11:07:45.834Z,21.84
2018-06-25T11:10:20.688Z,21.57
2018-06-25T11:13:00.390Z,22.20
2018-06-25T11:15:39.660Z,21.44
2018-06-25T11:18:15.300Z,20.48
2018-06-25T11:20:48.612Z,20.83
2018-06-25T11:23:24.121Z,21.20
2018-06-25T11:26:01.492Z,22.08
2018-06-25T11:28:41.095Z,22.33
2018-06-25T11:31:16.022Z,22.80
2018-06-25T11:33:56.230Z,23.42
2018-06-25T11:36:30.971Z,22.12
2018-06-25T11:39:08.624Z,21.67
2018-06-25T11:41:44.381Z,21.72
2018-06-25T11:44:22.862Z,21.41
2018-06-25T11:46:56.224Z,21.16
2018-06-25T11:49:31.338Z,21.81
2018-06-25T11:52:09.888Z,21.12
2018-06-25T11:54:43.446Z,22.17
2018-06-25T11:57:17.528Z,21.42
2018-06-25T11:59:51.699Z,21.95
2018-06-25T12:02:27.150Z,21.04
2018-06-25T12:05:02.166Z,21.87
2018-06-25T12:07:36.509Z,22.62
2018-06-25T12:10:14.904Z,22.25
2018-06-25T12:12:48.257Z,22.18
2018-06-25T12:15:30.312Z,21.09
2018-06-25T12:18:05.058Z,22.29
2018-06-25T12:20:40.220Z,21.54
2018-06-25T12:23:15.256Z,21.83
2018-06-25T12:25:50.327Z,21.67
2018-06-25T12:28:26.040Z,21.89
2018-06-25T12:31:00.397Z,20.69
2018-06-25T12:33:35.661Z,21.05
2018-06-25T12:36:15.050Z,20.69
2018-06-25T12:38:50.461Z,20.97
2018-06-25T12:41:30.468Z,19.97
2018-06-25T12:44:06.614Z,19.63
2018-06-25T12:46:42.774Z,19.76
2018-06-25T12:49:17.516Z,19.57
2018-06-25T12:51:52.812Z,20.24
2018-06-25T12:54:28.909Z,20.09
2018-06-25T12:57:04.408Z,19.94
2018-06-25T12:59:38.833Z,19.37
2018-06-25T13:02:15.284Z,19.34
2018-06-25T13:04:49.558Z,19.65
2018-06-25T13:07:24.586Z,19.50
2018-06-25T13:09:58.663Z,20.20
2018-06-25T13:12:34.969Z,20.23
2018-06-25T13:15:11.211Z,19.92
2018-06-25T13:17:48.175Z,19.63
2018-06-25T13:20:24.330Z,19.67
2018-06-25T13:22:58.894Z,18.31
2018-06-25T13:25:47.986Z,18.96
2018-06-25T13:28:29.954Z,19.08
2018-06-25T13:31:09.510Z,18.47
2018-06-25T13:33:45.314Z,18.91
2018-06-25T13:36:20.599Z,19.09
2018-06-25T13:38:56.069Z,17.46
2018-06-25T13:41:36.242Z,17.05
2018-06-25T13:44:11.188Z,16.58
2018-06-25T13:46:45.535Z,16.80
2018-06-25T13:49:22.768Z,17.05
2018-06-25T13:52:02.749Z,17.69
2018-06-25T13:54:46.433Z,17.36
2018-06-25T13:57:47.368Z,17.55
2018-06-25T14:03:11.013Z,18.92
2018-06-25T14:05:48.280Z,19.08
2018-06-25T14:08:24.490Z,19.30
2018-06-25T14:10:59.540Z,19.22
2018-06-25T14:13:36.821Z,18.87
2018-06-25T14:16:19.266Z,19.13
2018-06-25T14:19:07.495Z,18.22
2018-06-25T14:21:43.340Z,18.26
2018-06-25T14:24:22.848Z,17.89
2018-06-25T14:27:00.266Z,17.12
2018-06-25T14:29:36.136Z,17.77
2018-06-25T14:32:15.236Z,17.24
2018-06-25T14:34:53.787Z,17.07
2018-06-25T14:37:29.162Z,17.52
2018-06-25T14:40:05.866Z,17.15
2018-06-25T14:42:40.929Z,17.84
2018-06-25T14:45:17.528Z,18.82
2018-06-25T14:47:54.429Z,19.06
2018-06-25T14:50:36.461Z,19.25
2018-06-25T14:53:13.968Z,18.16
2018-06-25T14:55:49.580Z,18.21
2018-06-25T14:58:27.759Z,17.92
2018-06-25T15:01:01.277Z,18.32
2018-06-25T15:03:35.581Z,19.38
2018-06-25T15:06:09.661Z,18.92
2018-06-25T15:08:44.010Z,19.50
2018-06-25T15:11:19.044Z,19.99
2018-06-25T15:16:18.956Z,21.34
2018-06-25T15:18:59.306Z,22.12
2018-06-25T15:21:34.486Z,21.85
2018-06-25T15:24:12.397Z,21.20
2018-06-25T15:26:46.210Z,21.79
2018-06-25T15:29:23.101Z,21.42
2018-06-25T15:31:56.894Z,21.61
2018-06-25T15:34:30.741Z,20.47
2018-06-25T15:37:04.773Z,20.79
2018-06-25T15:39:38.290Z,20.90
2018-06-25T15:42:14.056Z,21.21
2018-06-25T15:44:50.037Z,20.93
2018-06-25T15:47:25.309Z,20.87
2018-06-25T15:50:02.139Z,21.21
2018-06-25T15:52:37.238Z,22.03
2018-06-25T15:55:12.941Z,21.96
2018-06-25T15:57:46.595Z,22.37
2018-06-25T16:00:19.922Z,22.09
2018-06-25T16:02:53.757Z,22.99
2018-06-25T16:05:27.754Z,22.38
2018-06-25T16:08:01.650Z,22.79
2018-06-25T16:10:37.134Z,23.17
2018-06-25T16:13:13.509Z,23.21
2018-06-25T16:15:49.468Z,23.75
2018-06-25T16:18:31.063Z,23.73
2018-06-25T16:21:10.910Z,23.75
2018-06-25T16:23:45.352Z,23.27
2018-06-25T16:26:36.204Z,23.30
2018-06-25T16:30:25.663Z,23.76
2018-06-25T16:33:05.190Z,23.52
2018-06-25T16:35:45.469Z,23.63
2018-06-25T16:38:25.600Z,24.24
2018-06-25T16:41:01.661Z,24.12
2018-06-25T16:43:39.297Z,24.22
2018-06-25T16:46:14.849Z,25.48
2018-06-25T16:48:48.479Z,25.48
2018-06-25T16:51:25.096Z,26.05
2018-06-25T16:53:59.192Z,26.19
2018-06-25T16:56:33.676Z,26.66
2018-06-25T16:59:07.736Z,26.94
2018-06-25T17:01:40.983Z,26.92
2018-06-25T17:04:16.748Z,27.54
2018-06-25T17:06:53.350Z,28.21
2018-06-25T17:09:28.541Z,27.90
2018-06-25T17:12:03.517Z,28.87
2018-06-25T17:14:37.143Z,28.24
2018-06-25T17:17:10.569Z,27.79
2018-06-25T17:19:45.923Z,27.40
2018-06-25T17:22:20.813Z,28.37
2018-06-25T17:24:54.523Z,28.14
2018-06-25T17:27:32.410Z,27.84
2018-06-25T17:30:42.359Z,29.04
2018-06-25T17:33:22.814Z,29.52
2018-06-25T17:35:58.877Z,28.67
2018-06-25T17:38:33.818Z,29.22
2018-06-25T17:41:12.290Z,28.82
2018-06-25T17:43:50.247Z,29.12
2018-06-25T17:46:39.099Z,29.20
2018-06-25T17:49:15.224Z,29.06
2018-06-25T17:51:53.318Z,28.06
2018-06-25T17:54:33.551Z,28.60
2018-06-25T17:57:10.475Z,28.88
2018-06-25T17:59:53.335Z,28.37
2018-06-25T18:02:28.540Z,28.76
2018-06-25T18:05:02.579Z,28.53
2018-06-25T18:07:38.478Z,28.54
2018-06-25T18:10:16.504Z,29.73
2018-06-25T18:13:05.388Z,29.55
2018-06-25T18:15:46.216Z,29.71
2018-06-25T18:18:21.227Z,29.51
2018-06-25T18:20:59.331Z,29.62
2018-06-25T18:23:33.300Z,29.85
2018-06-25T18:26:07.851Z,29.65
2018-06-25T18:28:42.942Z,30.30
2018-06-25T18:31:20.038Z,30.29
2018-06-25T18:33:54.699Z,31.07
2018-06-25T18:36:30.366Z,29.93
2018-06-25T18:39:07.640Z,30.64
2018-06-25T18:41:42.638Z,30.90
2018-06-25T18:44:20.253Z,30.77
2018-06-25T18:46:56.010Z,30.82
2018-06-25T18:49:31.887Z,31.90
2018-06-25T18:52:07.225Z,31.69
2018-06-25T18:54:40.501Z,31.75
2018-06-25T18:57:15.758Z,31.47
2018-06-25T19:02:41.636Z,32.11
2018-06-25T19:05:18.057Z,32.21
2018-06-25T19:10:47.316Z,32.42
2018-06-25T19:13:22.213Z,32.95
2018-06-25T19:15:59.411Z,32.94
2018-06-25T19:18:35.512Z,32.60
2018-06-25T19:21:09.935Z,32.91
2018-06-25T19:23:45.237Z,33.22
2018-06-25T19:26:21.787Z,33.02
2018-06-25T19:28:55.552Z,33.41
2018-06-25T19:31:29.275Z,33.27
2018-06-25T19:34:03.284Z,33.66
2018-06-25T19:36:38.721Z,33.56
2018-06-25T19:39:14.184Z,33.91
2018-06-25T19:41:49.474Z,33.78
2018-06-25T19:44:26.352Z,34.07
2018-06-25T19:47:00.491Z,33.37
2018-06-25T19:49:35.608Z,33.53
2018-06-25T19:52:12.022Z,33.67
2018-06-25T19:54:45.450Z,33.96
2018-06-25T19:57:21.029Z,33.32
2018-06-25T19:59:59.729Z,33.17
2018-06-25T20:02:43.505Z,33.89
2018-06-25T20:08:17.488Z,34.02
2018-06-25T20:10:52.475Z,33.46
2018-06-25T20:13:33.208Z,33.95
2018-06-25T20:16:13.432Z,33.35
2018-06-25T20:18:52.546Z,33.72
2018-06-25T20:21:30.971Z,34.37
2018-06-25T20:24:11.712Z,34.12
2018-06-25T20:26:46.330Z,34.52
2018-06-25T20:32:23.309Z,33.87
2018-06-25T20:35:01.937Z,33.87
2018-06-25T20:37:45.401Z,33.95
2018-06-25T20:43:14.401Z,33.86
2018-06-25T20:45:53.694Z,33.74
2018-06-25T20:51:15.317Z,34.69
2018-06-25T20:53:54.426Z,34.48
2018-06-25T20:56:33.521Z,35.49
2018-06-25T20:59:08.703Z,35.79
2018-06-25T21:11:11.076Z,36.02
2018-06-25T21:54:50.717Z,37.89
2018-06-25T21:57:55.899Z,37.59
2018-06-25T22:04:38.473Z,37.75
2018-06-25T22:12:26.513Z,37.61
2018-06-25T22:19:41.669Z,36.88
2018-06-25T22:24:50.507Z,36.80
2018-06-25T22:28:08.054Z,36.68
2018-06-25T22:34:38.416Z,37.40
2018-06-25T22:37:29.547Z,36.73
2018-06-25T22:40:34.707Z,36.89
2018-06-25T22:43:51.477Z,37.39
2018-06-25T22:46:44.198Z,37.61
2018-06-25T22:49:46.586Z,36.87
2018-06-25T22:52:55.937Z,36.01
2018-06-25T23:06:22.750Z,36.07
2018-06-25T23:09:04.396Z,36.26
2018-06-25T23:11:43.380Z,35.59
2018-06-25T23:17:21.217Z,36.18
2018-06-25T23:20:31.852Z,35.42
2018-06-25T23:23:30.899Z,35.21
2018-06-25T23:26:29.318Z,35.76
2018-06-25T23:35:28.799Z,35.13
2018-06-25T23:44:16.107Z,35.90
2018-06-25T23:47:00.418Z,35.42
2018-06-25T23:49:56.926Z,35.28
2018-06-25T23:52:45.948Z,35.87
2018-06-25T23:56:04.552Z,35.74
2018-06-25T23:58:44.594Z,35.44
